createdAt,value
2022-08-04T00:00:16.356Z,6.95
2022-08-04T00:01:19.254Z,7.75
2022-08-04T00:02:24.051Z,8.00
2022-08-04T00:03:27.229Z,5.48
2022-08-04T00:04:30.313Z,5.64
2022-08-04T00:05:33.290Z,5.54
2022-08-04T00:06:36.471Z,6.55
2022-08-04T00:07:44.595Z,4.70
2022-08-04T00:08:43.869Z,6.71
2022-08-04T00:09:46.733Z,6.88
2022-08-04T00:10:49.920Z,6.35
2022-08-04T00:11:52.690Z,7.84
2022-08-04T00:12:55.869Z,8.17
2022-08-04T00:14:03.363Z,6.46
2022-08-04T00:15:03.059Z,6.95
2022-08-04T00:16:05.723Z,5.99
2022-08-04T00:17:08.500Z,6.27
2022-08-04T00:18:11.269Z,6.26
2022-08-04T00:19:14.041Z,6.83
2022-08-04T00:20:16.809Z,4.82
2022-08-04T00:21:19.481Z,5.40
2022-08-04T00:22:22.256Z,6.20
2022-08-04T00:23:25.330Z,5.38
2022-08-04T00:24:28.100Z,6.27
2022-08-04T00:25:31.181Z,7.36
2022-08-04T00:26:34.057Z,6.49
2022-08-04T00:27:37.034Z,6.34
2022-08-04T00:28:40.225Z,5.48
2022-08-04T00:29:43.503Z,6.58
2022-08-04T00:30:46.373Z,6.35
2022-08-04T00:31:57.059Z,5.25
2022-08-04T00:32:54.071Z,6.71
2022-08-04T00:33:57.254Z,6.89
2022-08-04T00:35:00.145Z,5.61
2022-08-04T00:36:02.797Z,4.87
2022-08-04T00:37:05.774Z,5.82
2022-08-04T00:38:08.548Z,5.01
2022-08-04T00:39:11.467Z,6.63
2022-08-04T00:40:14.188Z,6.62
2022-08-04T00:41:16.862Z,6.65
2022-08-04T00:42:19.630Z,4.96
2022-08-04T00:43:22.725Z,5.27
2022-08-04T00:44:25.888Z,5.46
2022-08-04T00:45:28.768Z,10.58
2022-08-04T00:46:31.849Z,5.88
2022-08-04T00:47:35.056Z,5.35
2022-08-04T00:48:38.111Z,5.72
2022-08-04T00:49:40.885Z,6.48
2022-08-04T00:50:43.962Z,6.28
2022-08-04T00:51:46.843Z,3.87
2022-08-04T00:52:49.707Z,4.88
2022-08-04T00:53:54.233Z,5.41
2022-08-04T00:54:57.219Z,6.27
2022-08-04T00:56:00.076Z,4.10
2022-08-04T00:57:02.954Z,6.93
2022-08-04T00:58:05.617Z,5.35
2022-08-04T00:59:08.703Z,5.80
2022-08-04T01:00:11.685Z,5.02
2022-08-04T01:01:14.456Z,6.09
2022-08-04T01:02:17.322Z,5.22
2022-08-04T01:03:20.200Z,6.21
2022-08-04T01:04:25.938Z,5.05
2022-08-04T01:05:29.024Z,5.18
2022-08-04T01:06:33.529Z,7.19
2022-08-04T01:07:36.611Z,8.78
2022-08-04T01:08:40.611Z,9.22
2022-08-04T01:09:46.459Z,6.91
2022-08-04T01:10:49.532Z,7.85
2022-08-04T01:11:57.153Z,7.26
2022-08-04T01:12:56.726Z,4.75
2022-08-04T01:13:59.497Z,5.48
2022-08-04T01:15:02.370Z,7.33
2022-08-04T01:16:05.377Z,6.10
2022-08-04T01:17:08.011Z,7.15
2022-08-04T01:18:12.329Z,6.17
2022-08-04T01:19:15.099Z,7.18
2022-08-04T01:20:17.868Z,16.54
2022-08-04T01:21:20.946Z,9.49
2022-08-04T01:22:23.923Z,13.89
2022-08-04T01:23:26.901Z,7.69
2022-08-04T01:24:29.777Z,6.35
2022-08-04T01:25:33.920Z,9.64
2022-08-04T01:26:44.144Z,10.09
2022-08-04T01:27:42.198Z,8.21
2022-08-04T01:28:45.471Z,5.65
2022-08-04T01:29:48.823Z,6.16
2022-08-04T01:30:51.839Z,4.81
2022-08-04T01:31:55.120Z,5.87
2022-08-04T01:32:58.095Z,6.37
2022-08-04T01:34:03.940Z,4.59
2022-08-04T01:35:05.492Z,3.74
2022-08-04T01:36:08.196Z,5.82
2022-08-04T01:37:11.335Z,6.62
2022-08-04T01:38:18.434Z,6.75
2022-08-04T01:39:18.254Z,5.74
2022-08-04T01:40:21.083Z,5.65
2022-08-04T01:41:32.683Z,4.77
2022-08-04T01:42:31.911Z,5.51
2022-08-04T01:43:33.091Z,6.29
2022-08-04T01:44:36.063Z,5.25
2022-08-04T01:45:39.252Z,4.96
2022-08-04T01:46:42.429Z,5.30
2022-08-04T01:47:45.611Z,4.99
2022-08-04T01:48:47.980Z,5.73
2022-08-04T01:49:50.650Z,5.02
2022-08-04T01:50:53.515Z,4.26
2022-08-04T01:51:56.696Z,4.37
2022-08-04T01:52:59.679Z,5.01
2022-08-04T01:54:02.547Z,5.12
2022-08-04T01:55:05.220Z,7.35
2022-08-04T01:56:07.992Z,5.75
2022-08-04T01:57:38.083Z,5.59
2022-08-04T01:58:15.689Z,6.41
2022-08-04T01:59:18.668Z,6.27
2022-08-04T02:00:21.439Z,4.98
2022-08-04T02:01:24.355Z,4.48
2022-08-04T02:02:27.271Z,5.44
2022-08-04T02:04:21.658Z,4.50
2022-08-04T02:04:46.868Z,5.14
2022-08-04T02:06:03.044Z,4.58
2022-08-04T02:06:54.260Z,4.24
2022-08-04T02:07:57.130Z,6.18
2022-08-04T02:09:08.403Z,5.00
2022-08-04T02:10:11.497Z,4.87
2022-08-04T02:11:14.349Z,6.04
2022-08-04T02:12:17.230Z,5.51
2022-08-04T02:13:20.329Z,5.12
2022-08-04T02:14:23.185Z,4.47
2022-08-04T02:15:26.067Z,5.42
2022-08-04T02:16:28.823Z,6.22
2022-08-04T02:17:31.697Z,6.42
2022-08-04T02:18:34.464Z,4.66
2022-08-04T02:19:37.754Z,4.63
2022-08-04T02:20:40.827Z,4.12
2022-08-04T02:21:43.809Z,5.08
2022-08-04T02:22:46.793Z,4.89
2022-08-04T02:23:49.766Z,6.18
2022-08-04T02:24:52.740Z,7.01
2022-08-04T02:25:55.613Z,6.78
2022-08-04T02:26:58.799Z,5.12
2022-08-04T02:28:01.693Z,4.00
2022-08-04T02:29:07.827Z,4.66
2022-08-04T02:30:10.700Z,5.94
2022-08-04T02:31:13.780Z,5.58
2022-08-04T02:32:17.178Z,5.59
2022-08-04T02:33:20.063Z,6.00
2022-08-04T02:34:22.811Z,5.68
2022-08-04T02:35:25.903Z,4.80
2022-08-04T02:36:28.560Z,4.32
2022-08-04T02:37:31.429Z,4.94
2022-08-04T02:38:34.311Z,4.51
2022-08-04T02:39:48.268Z,5.94
2022-08-04T02:40:42.008Z,4.47
2022-08-04T02:41:44.576Z,5.28
2022-08-04T02:42:47.244Z,5.09
2022-08-04T02:43:51.668Z,5.22
2022-08-04T02:44:54.522Z,5.97
2022-08-04T02:45:57.612Z,6.39
2022-08-04T02:47:00.173Z,5.31
2022-08-04T02:48:29.252Z,5.90
2022-08-04T02:49:07.162Z,5.93
2022-08-04T02:50:09.819Z,6.64
2022-08-04T02:51:12.804Z,5.06
2022-08-04T02:52:15.786Z,6.21
2022-08-04T02:53:18.554Z,8.59
2022-08-04T02:54:22.357Z,6.94
2022-08-04T02:55:25.645Z,5.74
2022-08-04T02:56:28.411Z,9.51
2022-08-04T02:57:31.271Z,5.91
2022-08-04T02:58:34.043Z,6.36
2022-08-04T02:59:36.817Z,7.76
2022-08-04T03:00:39.633Z,8.04
2022-08-04T03:01:57.513Z,7.05
2022-08-04T03:02:47.405Z,5.27
2022-08-04T03:03:50.367Z,7.02
2022-08-04T03:04:53.035Z,4.71
2022-08-04T03:06:00.931Z,4.82
2022-08-04T03:07:00.325Z,5.07
2022-08-04T03:08:03.091Z,5.71
2022-08-04T03:09:06.165Z,5.07
2022-08-04T03:10:08.946Z,4.25
2022-08-04T03:11:11.714Z,5.15
2022-08-04T03:12:14.589Z,4.75
2022-08-04T03:13:17.466Z,5.76
2022-08-04T03:14:20.446Z,7.53
2022-08-04T03:15:23.009Z,5.93
2022-08-04T03:16:30.369Z,8.14
2022-08-04T03:17:30.188Z,5.02
2022-08-04T03:18:32.858Z,5.86
2022-08-04T03:19:35.633Z,8.62
2022-08-04T03:20:38.827Z,4.98
2022-08-04T03:21:42.098Z,5.77
2022-08-04T03:23:11.737Z,7.12
2022-08-04T03:23:49.808Z,10.26
2022-08-04T03:24:52.690Z,5.83
2022-08-04T03:25:56.999Z,5.38
2022-08-04T03:27:00.268Z,4.95
2022-08-04T03:28:03.241Z,4.94
2022-08-04T03:29:06.431Z,6.04
2022-08-04T03:30:09.208Z,6.30
2022-08-04T03:31:12.183Z,4.82
2022-08-04T03:32:15.042Z,5.68
2022-08-04T03:33:17.931Z,5.52
2022-08-04T03:34:20.609Z,12.86
2022-08-04T03:35:26.435Z,10.14
2022-08-04T03:36:31.606Z,6.46
2022-08-04T03:37:33.407Z,8.96
2022-08-04T03:38:36.284Z,7.65
2022-08-04T03:39:39.051Z,6.16
2022-08-04T03:40:41.831Z,7.02
2022-08-04T03:41:51.960Z,5.88
2022-08-04T03:42:48.809Z,5.44
2022-08-04T03:43:58.977Z,5.91
2022-08-04T03:44:56.405Z,5.69
2022-08-04T03:45:59.484Z,4.55
2022-08-04T03:47:02.567Z,5.03
2022-08-04T03:48:05.224Z,5.82
2022-08-04T03:49:08.306Z,5.42
2022-08-04T03:50:10.974Z,6.71
2022-08-04T03:51:35.186Z,7.32
2022-08-04T03:52:18.261Z,5.16
2022-08-04T03:53:20.935Z,5.71
2022-08-04T03:54:24.111Z,7.42
2022-08-04T03:55:27.193Z,5.29
2022-08-04T03:56:30.272Z,4.12
2022-08-04T03:57:33.348Z,3.72
2022-08-04T03:58:36.331Z,4.92
2022-08-04T03:59:39.722Z,5.18
2022-08-04T04:00:44.330Z,4.43
2022-08-04T04:02:02.620Z,3.56
2022-08-04T04:02:51.888Z,5.55
2022-08-04T04:03:54.799Z,4.50
2022-08-04T04:04:57.894Z,5.60
2022-08-04T04:06:03.148Z,3.98
2022-08-04T04:07:05.079Z,5.08
2022-08-04T04:08:12.585Z,6.82
2022-08-04T04:09:14.304Z,8.67
2022-08-04T04:10:19.117Z,5.07
2022-08-04T04:11:22.294Z,3.45
2022-08-04T04:12:24.960Z,5.28
2022-08-04T04:13:27.642Z,4.78
2022-08-04T04:14:30.405Z,5.62
2022-08-04T04:15:33.586Z,10.15
2022-08-04T04:16:36.359Z,3.80
2022-08-04T04:17:39.358Z,8.65
2022-08-04T04:18:42.314Z,4.48
2022-08-04T04:19:47.234Z,3.27
2022-08-04T04:20:50.211Z,3.67
2022-08-04T04:21:53.185Z,4.17
2022-08-04T04:22:56.163Z,4.91
2022-08-04T04:23:59.867Z,6.70
2022-08-04T04:25:02.738Z,5.71
2022-08-04T04:26:05.401Z,5.38
2022-08-04T04:27:08.378Z,6.42
2022-08-04T04:28:45.367Z,5.16
2022-08-04T04:29:15.456Z,4.68
2022-08-04T04:30:18.235Z,4.04
2022-08-04T04:31:21.108Z,3.81
2022-08-04T04:32:23.881Z,5.44
2022-08-04T04:33:26.754Z,3.10
2022-08-04T04:34:29.837Z,4.42
2022-08-04T04:35:32.708Z,4.41
2022-08-04T04:36:36.281Z,4.04
2022-08-04T04:37:39.274Z,5.96
2022-08-04T04:38:43.891Z,3.91
2022-08-04T04:39:46.975Z,3.62
2022-08-04T04:40:49.856Z,4.28
2022-08-04T04:41:53.029Z,3.05
2022-08-04T04:42:56.007Z,3.52
2022-08-04T04:43:58.672Z,2.98
2022-08-04T04:45:01.452Z,3.43
2022-08-04T04:46:04.115Z,4.01
2022-08-04T04:47:06.995Z,3.87
2022-08-04T04:48:10.804Z,3.35
2022-08-04T04:49:13.869Z,3.76
2022-08-04T04:50:17.873Z,4.08
2022-08-04T04:51:20.534Z,3.35
2022-08-04T04:52:23.617Z,4.31
2022-08-04T04:53:26.281Z,5.97
2022-08-04T04:54:29.065Z,4.48
2022-08-04T04:55:31.831Z,6.28
2022-08-04T04:56:34.910Z,4.45
2022-08-04T04:57:54.956Z,4.38
2022-08-04T04:58:42.604Z,3.53
2022-08-04T04:59:45.478Z,3.15
2022-08-04T05:00:48.451Z,3.91
2022-08-04T05:01:51.534Z,4.23
2022-08-04T05:02:58.753Z,4.52
2022-08-04T05:03:59.130Z,3.49
2022-08-04T05:05:02.533Z,3.49
2022-08-04T05:06:05.184Z,3.90
2022-08-04T05:07:08.268Z,3.77
2022-08-04T05:08:44.643Z,3.42
2022-08-04T05:09:15.449Z,3.29
2022-08-04T05:10:18.317Z,4.62
2022-08-04T05:11:21.088Z,6.45
2022-08-04T05:14:32.757Z,5.00
2022-08-04T05:14:37.969Z,3.98
2022-08-04T05:14:40.998Z,4.05
2022-08-04T05:15:36.792Z,4.57
2022-08-04T05:16:39.516Z,3.66
2022-08-04T05:17:42.131Z,3.55
2022-08-04T05:18:44.899Z,4.45
2022-08-04T05:19:47.776Z,4.15
2022-08-04T05:20:50.642Z,5.25
2022-08-04T05:21:53.523Z,4.00
2022-08-04T05:22:56.292Z,4.54
2022-08-04T05:23:59.484Z,5.89
2022-08-04T05:25:02.355Z,3.68
2022-08-04T05:26:05.239Z,3.99
2022-08-04T05:27:08.103Z,3.69
2022-08-04T05:28:11.590Z,3.85
2022-08-04T05:29:14.573Z,3.90
2022-08-04T05:30:18.882Z,3.25
2022-08-04T05:31:21.546Z,3.65
2022-08-04T05:32:24.329Z,4.86
2022-08-04T05:33:29.153Z,8.11
2022-08-04T05:34:31.706Z,5.27
2022-08-04T05:35:49.795Z,4.05
2022-08-04T05:36:41.421Z,5.44
2022-08-04T05:37:43.707Z,4.83
2022-08-04T05:38:46.478Z,4.18
2022-08-04T05:39:49.564Z,3.47
2022-08-04T05:40:52.434Z,2.68
2022-08-04T05:41:58.323Z,3.16
2022-08-04T05:43:01.256Z,4.74
2022-08-04T05:44:03.925Z,6.65
2022-08-04T05:45:06.593Z,5.57
2022-08-04T05:46:09.366Z,3.68
2022-08-04T05:47:12.048Z,4.48
2022-08-04T05:48:14.816Z,2.99
2022-08-04T05:49:19.735Z,3.54
2022-08-04T05:50:21.789Z,2.87
2022-08-04T05:51:24.666Z,3.49
2022-08-04T05:52:27.637Z,5.68
2022-08-04T05:53:30.617Z,4.11
2022-08-04T05:54:33.493Z,4.25
2022-08-04T05:55:57.145Z,5.26
2022-08-04T05:56:40.983Z,5.07
2022-08-04T05:57:44.061Z,4.08
2022-08-04T05:58:47.038Z,3.85
2022-08-04T05:59:50.014Z,4.16
2022-08-04T06:00:52.858Z,5.32
2022-08-04T06:01:57.263Z,6.27
2022-08-04T06:03:00.377Z,5.38
2022-08-04T06:04:08.046Z,3.99
2022-08-04T06:05:08.185Z,5.03
2022-08-04T06:06:11.258Z,6.49
2022-08-04T06:07:14.549Z,4.17
2022-08-04T06:08:17.314Z,5.09
2022-08-04T06:09:19.987Z,6.56
2022-08-04T06:10:27.018Z,5.58
2022-08-04T06:11:27.165Z,5.98
2022-08-04T06:12:29.939Z,5.53
2022-08-04T06:13:47.844Z,5.37
2022-08-04T06:14:37.017Z,4.19
2022-08-04T06:15:39.688Z,6.10
2022-08-04T06:16:46.047Z,4.65
2022-08-04T06:19:58.440Z,5.16
2022-08-04T06:19:59.745Z,4.71
2022-08-04T06:20:20.008Z,4.36
2022-08-04T06:21:01.433Z,5.56
2022-08-04T06:22:06.051Z,5.31
2022-08-04T06:23:08.922Z,5.65
2022-08-04T06:24:11.906Z,4.30
2022-08-04T06:25:15.086Z,4.53
2022-08-04T06:26:18.170Z,5.05
2022-08-04T06:27:22.381Z,3.77
2022-08-04T06:28:25.867Z,4.12
2022-08-04T06:29:28.629Z,5.39
2022-08-04T06:30:31.241Z,4.80
2022-08-04T06:32:29.844Z,6.48
2022-08-04T06:32:41.853Z,5.61
2022-08-04T06:33:54.836Z,4.71
2022-08-04T06:34:46.791Z,4.24
2022-08-04T06:35:50.587Z,3.84
2022-08-04T06:36:53.254Z,4.26
2022-08-04T06:38:00.649Z,3.98
2022-08-04T06:39:00.859Z,5.09
2022-08-04T06:40:16.715Z,3.84
2022-08-04T06:41:08.442Z,3.89
2022-08-04T06:42:21.531Z,4.72
2022-08-04T06:43:16.134Z,4.77
2022-08-04T06:44:21.408Z,4.81
2022-08-04T06:45:23.317Z,4.53
2022-08-04T06:46:26.090Z,5.61
2022-08-04T06:47:28.964Z,4.68
2022-08-04T06:48:33.908Z,4.98
2022-08-04T06:49:55.215Z,4.25
2022-08-04T06:51:32.783Z,4.78
2022-08-04T06:51:49.314Z,3.85
2022-08-04T06:52:50.000Z,4.50
2022-08-04T06:53:53.282Z,5.45
2022-08-04T06:54:56.268Z,5.44
2022-08-04T06:55:59.447Z,4.55
2022-08-04T06:57:02.615Z,5.48
2022-08-04T06:58:05.501Z,4.43
2022-08-04T06:59:09.101Z,4.72
2022-08-04T07:00:11.962Z,5.27
2022-08-04T07:01:14.739Z,4.95
2022-08-04T07:02:17.405Z,4.37
2022-08-04T07:03:20.277Z,4.41
2022-08-04T07:04:23.479Z,5.98
2022-08-04T07:05:27.261Z,5.23
2022-08-04T07:06:30.336Z,5.63
2022-08-04T07:07:36.628Z,6.61
2022-08-04T07:08:38.456Z,3.66
2022-08-04T07:09:42.443Z,3.96
2022-08-04T07:10:45.833Z,5.05
2022-08-04T07:11:48.601Z,4.65
2022-08-04T07:12:53.755Z,4.51
2022-08-04T07:13:56.812Z,5.53
2022-08-04T07:15:01.111Z,5.28
2022-08-04T07:16:04.107Z,5.24
2022-08-04T07:17:07.168Z,4.98
2022-08-04T07:18:10.154Z,6.25
2022-08-04T07:19:18.541Z,6.68
2022-08-04T07:20:34.869Z,6.41
2022-08-04T07:21:22.967Z,5.61
2022-08-04T07:22:26.577Z,5.62
2022-08-04T07:23:29.232Z,5.78
2022-08-04T07:24:31.900Z,7.13
2022-08-04T07:26:11.096Z,8.07
2022-08-04T07:26:39.953Z,5.73
2022-08-04T07:27:47.182Z,5.15
2022-08-04T07:28:47.511Z,6.49
2022-08-04T07:29:50.894Z,7.25
2022-08-04T07:30:54.072Z,6.73
2022-08-04T07:31:57.679Z,7.55
2022-08-04T07:33:01.560Z,6.00
2022-08-04T07:34:16.901Z,5.50
2022-08-04T07:35:09.147Z,5.86
2022-08-04T07:36:13.282Z,6.44
2022-08-04T07:37:17.874Z,5.64
2022-08-04T07:38:21.068Z,7.41
2022-08-04T07:39:28.564Z,6.14
2022-08-04T07:40:30.810Z,5.88
2022-08-04T07:41:35.640Z,5.91
2022-08-04T07:42:39.468Z,6.29
2022-08-04T07:43:42.513Z,6.38
2022-08-04T07:44:45.467Z,5.05
2022-08-04T07:45:48.649Z,5.01
2022-08-04T07:46:52.355Z,5.85
2022-08-04T07:48:05.077Z,7.03
2022-08-04T07:49:00.362Z,6.23
2022-08-04T07:50:03.421Z,5.42
2022-08-04T07:51:06.553Z,5.52
2022-08-04T07:52:09.402Z,6.91
2022-08-04T07:53:54.318Z,7.51
2022-08-04T07:54:16.360Z,10.54
2022-08-04T07:55:19.259Z,8.03
2022-08-04T07:56:22.200Z,6.62
2022-08-04T07:57:40.181Z,7.31
2022-08-04T07:58:30.486Z,5.91
2022-08-04T07:59:33.691Z,6.96
2022-08-04T08:00:36.691Z,5.41
2022-08-04T08:01:39.990Z,5.91
2022-08-04T08:02:43.184Z,7.27
2022-08-04T08:03:46.409Z,6.58
2022-08-04T08:04:49.399Z,5.98
2022-08-04T08:06:16.936Z,5.80
2022-08-04T08:06:57.203Z,5.71
2022-08-04T08:08:00.336Z,7.27
2022-08-04T08:09:12.323Z,6.62
2022-08-04T08:10:08.177Z,5.53
2022-08-04T08:11:11.774Z,6.01
2022-08-04T08:12:35.250Z,6.88
2022-08-04T08:13:19.273Z,6.96
2022-08-04T08:14:22.144Z,7.19
2022-08-04T08:15:26.853Z,7.50
2022-08-04T08:16:30.647Z,7.56
2022-08-04T08:17:33.929Z,6.58
2022-08-04T08:18:39.070Z,7.27
2022-08-04T08:19:41.833Z,6.62
2022-08-04T08:20:45.017Z,6.78
2022-08-04T08:21:59.336Z,6.29
2022-08-04T08:22:52.704Z,7.19
2022-08-04T08:23:55.889Z,9.38
2022-08-04T08:24:59.279Z,7.14
2022-08-04T08:26:02.665Z,7.73
2022-08-04T08:27:05.748Z,6.03
2022-08-04T08:28:08.623Z,6.22
2022-08-04T08:29:11.809Z,6.58
2022-08-04T08:30:14.682Z,5.09
2022-08-04T08:31:17.561Z,5.97
2022-08-04T08:32:20.933Z,5.73
2022-08-04T08:33:24.114Z,5.60
2022-08-04T08:34:28.774Z,7.38
2022-08-04T08:35:31.914Z,7.09
2022-08-04T08:36:34.989Z,8.28
2022-08-04T08:37:40.322Z,5.02
2022-08-04T08:38:42.788Z,6.28
2022-08-04T08:39:45.867Z,5.65
2022-08-04T08:40:49.383Z,5.03
2022-08-04T08:41:52.540Z,6.21
2022-08-04T08:42:55.617Z,5.78
2022-08-04T08:44:03.713Z,6.21
2022-08-04T08:45:03.930Z,5.70
2022-08-04T08:46:06.807Z,6.40
2022-08-04T08:47:09.478Z,5.68
2022-08-04T08:48:12.353Z,5.41
2022-08-04T08:50:00.576Z,5.54
2022-08-04T08:50:19.437Z,6.03
2022-08-04T08:51:22.711Z,6.92
2022-08-04T08:53:01.206Z,4.34
2022-08-04T08:53:30.826Z,4.03
2022-08-04T08:54:33.792Z,5.71
2022-08-04T08:55:37.078Z,4.89
2022-08-04T08:56:40.055Z,3.24
2022-08-04T08:57:43.976Z,5.00
2022-08-04T08:58:47.553Z,5.56
2022-08-04T08:59:51.237Z,5.63
2022-08-04T09:00:54.313Z,4.69
2022-08-04T09:01:57.159Z,4.55
2022-08-04T09:03:04.489Z,4.59
2022-08-04T09:04:05.304Z,4.22
2022-08-04T09:05:07.972Z,4.45
2022-08-04T09:06:10.939Z,4.28
2022-08-04T09:07:14.106Z,3.83
2022-08-04T09:08:16.903Z,4.13
2022-08-04T09:09:20.089Z,4.32
2022-08-04T09:10:23.879Z,4.25
2022-08-04T09:11:27.360Z,3.78
2022-08-04T09:12:30.445Z,4.09
2022-08-04T09:13:33.943Z,4.63
2022-08-04T09:14:37.321Z,3.89
2022-08-04T09:15:40.512Z,3.54
2022-08-04T09:16:44.407Z,4.10
2022-08-04T09:17:48.101Z,4.27
2022-08-04T09:18:51.174Z,3.26
2022-08-04T09:19:54.059Z,4.87
2022-08-04T09:20:56.685Z,3.22
2022-08-04T09:21:59.795Z,4.45
2022-08-04T09:23:02.665Z,3.65
2022-08-04T09:24:34.766Z,2.64
2022-08-04T09:25:10.377Z,2.59
2022-08-04T09:26:13.449Z,4.18
2022-08-04T09:27:16.627Z,5.63
2022-08-04T09:28:37.162Z,2.67
2022-08-04T09:29:24.026Z,2.24
2022-08-04T09:30:26.892Z,1.95
2022-08-04T09:31:48.951Z,2.39
2022-08-04T09:32:34.991Z,1.87
2022-08-04T09:33:45.349Z,2.38
2022-08-04T09:34:42.181Z,2.49
2022-08-04T09:35:45.197Z,1.85
2022-08-04T09:36:47.818Z,1.95
2022-08-04T09:37:50.805Z,2.10
2022-08-04T09:38:53.929Z,2.75
2022-08-04T09:39:56.851Z,1.94
2022-08-04T09:41:01.211Z,3.45
2022-08-04T09:42:05.819Z,3.47
2022-08-04T09:43:11.320Z,2.52
2022-08-04T09:44:51.117Z,2.62
2022-08-04T09:45:26.690Z,2.76
2022-08-04T09:46:24.459Z,2.32
2022-08-04T09:47:39.957Z,1.88
2022-08-04T09:48:32.964Z,2.46
2022-08-04T09:49:36.544Z,2.82
2022-08-04T09:50:39.953Z,2.71
2022-08-04T09:51:57.547Z,4.11
2022-08-04T09:52:47.631Z,3.29
2022-08-04T09:53:50.810Z,3.34
2022-08-04T09:54:53.889Z,3.25
2022-08-04T09:56:01.162Z,2.99
2022-08-04T09:57:02.106Z,2.33
2022-08-04T09:58:04.978Z,2.05
2022-08-04T09:59:08.770Z,2.35
2022-08-04T10:00:12.463Z,3.08
2022-08-04T10:01:19.764Z,3.01
2022-08-04T10:02:20.397Z,2.42
2022-08-04T10:03:23.426Z,3.64
2022-08-04T10:04:26.560Z,2.48
2022-08-04T10:05:33.200Z,2.62
2022-08-04T10:06:36.280Z,2.06
2022-08-04T10:07:39.450Z,2.63
2022-08-04T10:08:42.341Z,2.63
2022-08-04T10:09:45.833Z,2.31
2022-08-04T10:10:48.896Z,3.47
2022-08-04T10:11:55.592Z,3.66
2022-08-04T10:12:57.212Z,2.37
2022-08-04T10:14:00.499Z,3.97
2022-08-04T10:15:04.114Z,3.61
2022-08-04T10:16:07.048Z,3.86
2022-08-04T10:17:10.344Z,2.74
2022-08-04T10:18:13.002Z,2.80
2022-08-04T10:19:16.003Z,3.32
2022-08-04T10:20:33.949Z,5.01
2022-08-04T10:21:23.582Z,3.64
2022-08-04T10:22:29.671Z,4.12
2022-08-04T10:23:31.894Z,4.56
2022-08-04T10:24:36.397Z,3.91
2022-08-04T10:26:05.738Z,5.00
2022-08-04T10:26:44.704Z,2.54
2022-08-04T10:27:48.002Z,2.57
2022-08-04T10:28:51.407Z,3.52
2022-08-04T10:29:56.924Z,3.38
2022-08-04T10:31:00.005Z,3.94
2022-08-04T10:32:03.201Z,3.28
2022-08-04T10:33:06.577Z,2.51
2022-08-04T10:34:09.542Z,2.21
2022-08-04T10:35:12.618Z,2.47
2022-08-04T10:36:15.911Z,2.99
2022-08-04T10:37:19.534Z,2.49
2022-08-04T10:38:26.769Z,2.88
2022-08-04T10:39:43.163Z,3.29
2022-08-04T10:40:31.300Z,3.24
2022-08-04T10:41:33.959Z,2.78
2022-08-04T10:42:37.259Z,2.88
2022-08-04T10:43:40.837Z,2.72
2022-08-04T10:44:43.608Z,2.92
2022-08-04T10:45:46.900Z,3.98
2022-08-04T10:46:50.077Z,2.83
2022-08-04T10:47:53.560Z,1.65
2022-08-04T10:48:56.646Z,2.36
2022-08-04T10:49:59.513Z,1.92
2022-08-04T10:51:02.700Z,1.70
2022-08-04T10:52:05.999Z,1.99
2022-08-04T10:53:09.668Z,1.45
2022-08-04T10:54:13.070Z,1.84
2022-08-04T10:55:15.940Z,1.22
2022-08-04T10:56:20.561Z,1.55
2022-08-04T10:58:47.127Z,1.73
2022-08-04T10:59:46.402Z,1.07
2022-08-04T11:00:49.367Z,1.12
2022-08-04T11:02:02.659Z,1.33
2022-08-04T11:02:56.800Z,1.51
2022-08-04T11:03:59.623Z,1.40
2022-08-04T11:05:02.494Z,2.39
2022-08-04T11:06:05.819Z,1.05
2022-08-04T11:07:08.659Z,1.68
2022-08-04T11:08:14.375Z,2.02
2022-08-04T11:09:15.958Z,2.23
2022-08-04T11:10:18.927Z,2.08
2022-08-04T11:11:22.097Z,2.15
2022-08-04T11:12:25.079Z,1.29
2022-08-04T11:13:29.894Z,1.11
2022-08-04T11:14:32.991Z,0.94
2022-08-04T11:15:36.062Z,1.03
2022-08-04T11:16:39.651Z,1.25
2022-08-04T11:17:42.739Z,0.99
2022-08-04T11:18:46.138Z,1.92
2022-08-04T11:19:53.463Z,0.85
2022-08-04T11:20:53.710Z,0.99
2022-08-04T11:21:57.409Z,1.50
2022-08-04T11:23:00.695Z,1.09
2022-08-04T11:24:03.881Z,1.31
2022-08-04T11:25:07.253Z,1.32
2022-08-04T11:26:10.231Z,1.13
2022-08-04T11:27:13.455Z,1.42
2022-08-04T11:28:16.380Z,1.07
2022-08-04T11:29:19.667Z,0.88
2022-08-04T11:30:23.059Z,1.35
2022-08-04T11:31:25.843Z,0.97
2022-08-04T11:32:28.710Z,1.02
2022-08-04T11:33:31.802Z,0.92
2022-08-04T11:34:36.714Z,1.45
2022-08-04T11:35:39.998Z,1.53
2022-08-04T11:36:43.190Z,1.04
2022-08-04T11:37:46.251Z,1.02
2022-08-04T11:38:50.872Z,1.34
2022-08-04T11:39:54.152Z,1.24
2022-08-04T11:41:02.669Z,1.62
2022-08-04T11:42:02.061Z,0.75
2022-08-04T11:43:05.132Z,1.03
2022-08-04T11:44:12.325Z,0.76
2022-08-04T11:45:12.226Z,0.85
2022-08-04T11:46:15.188Z,1.05
2022-08-04T11:47:18.688Z,0.88
2022-08-04T11:48:22.990Z,1.11
2022-08-04T11:49:25.860Z,1.08
2022-08-04T11:50:28.530Z,1.69
2022-08-04T11:51:31.401Z,0.93
2022-08-04T11:52:34.392Z,2.17
2022-08-04T11:53:37.162Z,1.22
2022-08-04T11:54:39.816Z,1.20
2022-08-04T11:56:07.144Z,1.34
2022-08-04T11:56:47.209Z,1.92
2022-08-04T11:57:54.341Z,1.29
2022-08-04T11:58:54.204Z,1.34
2022-08-04T11:59:56.988Z,1.33
2022-08-04T12:01:01.593Z,1.06
2022-08-04T12:02:04.424Z,1.86
2022-08-04T12:03:07.221Z,4.03
2022-08-04T12:04:10.113Z,0.93
2022-08-04T12:05:32.357Z,1.18
2022-08-04T12:06:17.282Z,1.11
2022-08-04T12:07:40.522Z,1.16
2022-08-04T12:08:24.567Z,0.91
2022-08-04T12:09:27.333Z,0.62
2022-08-04T12:10:41.193Z,0.63
2022-08-04T12:11:35.039Z,1.23
2022-08-04T12:12:38.343Z,0.77
2022-08-04T12:13:41.288Z,0.81
2022-08-04T12:14:44.372Z,1.55
2022-08-04T12:15:47.246Z,1.08
2022-08-04T12:16:50.221Z,0.95
2022-08-04T12:17:53.881Z,1.45
2022-08-04T12:18:56.890Z,3.29
2022-08-04T12:20:05.042Z,1.85
2022-08-04T12:21:03.972Z,1.13
2022-08-04T12:22:06.850Z,1.24
2022-08-04T12:23:11.570Z,1.01
2022-08-04T12:24:14.957Z,1.27
2022-08-04T12:25:17.831Z,1.28
2022-08-04T12:26:20.601Z,1.05
2022-08-04T12:27:23.479Z,0.90
2022-08-04T12:28:27.582Z,1.19
2022-08-04T12:29:30.562Z,1.45
2022-08-04T12:31:00.190Z,1.25
2022-08-04T12:31:38.142Z,1.89
2022-08-04T12:32:48.431Z,0.98
2022-08-04T12:34:04.206Z,1.26
2022-08-04T12:34:50.048Z,1.08
2022-08-04T12:36:05.290Z,1.04
2022-08-04T12:36:57.543Z,1.37
2022-08-04T12:38:00.412Z,0.91
2022-08-04T12:39:03.492Z,1.27
2022-08-04T12:40:27.635Z,1.08
2022-08-04T12:41:10.568Z,1.63
2022-08-04T12:42:17.068Z,1.18
2022-08-04T12:43:17.858Z,1.20
2022-08-04T12:44:36.817Z,1.19
2022-08-04T12:45:24.919Z,1.43
2022-08-04T12:46:27.523Z,1.25
2022-08-04T12:47:30.487Z,2.22
2022-08-04T12:48:33.252Z,1.56
2022-08-04T12:49:37.667Z,1.74
2022-08-04T12:50:40.639Z,2.21
2022-08-04T12:52:08.580Z,1.64
2022-08-04T12:53:04.235Z,1.13
2022-08-04T12:53:52.449Z,0.95
2022-08-04T12:54:55.414Z,1.18
2022-08-04T12:56:01.358Z,1.32
2022-08-04T12:57:02.199Z,1.13
2022-08-04T12:58:04.762Z,1.65
2022-08-04T12:59:12.942Z,1.53
2022-08-04T13:00:11.940Z,1.58
2022-08-04T13:02:09.234Z,1.03
2022-08-04T13:02:18.753Z,1.51
2022-08-04T13:03:21.491Z,1.28
2022-08-04T13:04:28.954Z,1.55
2022-08-04T13:05:28.784Z,1.13
2022-08-04T13:06:31.549Z,1.24
2022-08-04T13:07:34.313Z,1.89
2022-08-04T13:08:37.083Z,1.21
2022-08-04T13:09:39.868Z,2.14
2022-08-04T13:10:42.754Z,1.85
2022-08-04T13:11:45.739Z,2.00
2022-08-04T13:12:50.033Z,1.17
2022-08-04T13:14:05.341Z,1.82
2022-08-04T13:14:57.515Z,1.37
2022-08-04T13:16:02.135Z,1.24
2022-08-04T13:17:04.892Z,1.31
2022-08-04T13:18:07.669Z,0.97
2022-08-04T13:19:11.873Z,1.66
2022-08-04T13:20:14.964Z,1.20
2022-08-04T13:21:20.199Z,1.39
2022-08-04T13:22:23.062Z,1.44
2022-08-04T13:23:27.262Z,1.53
2022-08-04T13:24:32.273Z,1.80
2022-08-04T13:26:42.430Z,2.52
2022-08-04T13:26:43.065Z,1.47
2022-08-04T13:27:44.187Z,1.05
2022-08-04T13:28:48.393Z,1.71
2022-08-04T13:29:58.836Z,1.32
2022-08-04T13:30:55.371Z,0.99
2022-08-04T13:31:58.150Z,2.05
2022-08-04T13:33:00.612Z,1.80
2022-08-04T13:34:03.588Z,2.54
2022-08-04T13:35:06.665Z,1.21
2022-08-04T13:36:09.336Z,1.49
2022-08-04T13:37:12.319Z,1.35
2022-08-04T13:38:16.619Z,1.00
2022-08-04T13:39:19.568Z,1.47
2022-08-04T13:40:22.166Z,0.87
2022-08-04T13:41:30.387Z,1.03
2022-08-04T13:42:29.040Z,1.19
2022-08-04T13:44:15.415Z,1.52
2022-08-04T13:44:36.122Z,0.83
2022-08-04T13:45:38.998Z,0.80
2022-08-04T13:46:44.404Z,0.63
2022-08-04T13:47:46.483Z,0.93
2022-08-04T13:49:08.888Z,1.72
2022-08-04T13:50:09.845Z,0.95
2022-08-04T13:50:58.078Z,0.88
2022-08-04T13:52:00.947Z,0.98
2022-08-04T13:53:04.143Z,0.64
2022-08-04T13:54:06.905Z,0.83
2022-08-04T13:55:11.115Z,0.76
2022-08-04T13:56:13.885Z,0.78
2022-08-04T13:57:16.860Z,1.46
2022-08-04T13:58:21.068Z,0.79
2022-08-04T13:59:23.838Z,0.88
2022-08-04T14:00:29.500Z,1.43
2022-08-04T14:01:35.888Z,0.94
2022-08-04T14:02:34.919Z,0.94
2022-08-04T14:03:54.246Z,0.66
2022-08-04T14:04:41.796Z,0.74